Time;durP1;ratioP1;P1;durP2;ratioP2;P2;SDS_P1;SDS_P2;PMS_P1;PMS_P2;Temp;Humidity;BMP_temperature;BMP_pressure;BME280_temperature;BME280_humidity;BME280_pressure;Samples;Min_cycle;Max_cycle;Signal;HPM_P1;HPM_P2
2023/06/19 00:00:44;;;;;;;3.07;2.87;;;24.70;91.10;;;;;;4935769;29;20842;-84
2023/06/19 00:03:11;;;;;;;3.10;2.90;;;24.70;91.10;;;;;;4935756;29;20439;-84
2023/06/19 00:05:38;;;;;;;2.43;2.30;;;24.70;91.10;;;;;;4935701;29;20453;-84
2023/06/19 00:08:06;;;;;;;2.90;2.70;;;24.70;91.00;;;;;;4935765;29;20795;-84
2023/06/19 00:10:33;;;;;;;2.63;2.43;;;24.70;91.10;;;;;;4935669;29;20505;-84
2023/06/19 00:13:01;;;;;;;2.70;2.50;;;24.70;91.10;;;;;;4935661;29;20538;-84
2023/06/19 00:15:29;;;;;;;2.67;2.47;;;24.70;91.10;;;;;;4936192;29;20491;-84
2023/06/19 00:17:56;;;;;;;2.83;2.63;;;24.70;91.20;;;;;;4939520;29;20515;-84
2023/06/19 00:20:24;;;;;;;3.20;3.00;;;24.70;91.20;;;;;;4939598;29;20456;-84
2023/06/19 00:22:51;;;;;;;3.10;2.90;;;24.70;90.90;;;;;;4939480;29;20452;-84
2023/06/19 00:25:18;;;;;;;3.03;2.83;;;24.70;91.10;;;;;;4939439;29;20449;-84
2023/06/19 00:27:45;;;;;;;3.00;2.80;;;24.70;91.10;;;;;;4939296;29;20456;-84
2023/06/19 00:30:14;;;;;;;2.90;2.63;;;24.70;91.50;;;;;;4939082;29;20919;-84
2023/06/19 00:32:47;;;;;;;2.70;2.50;;;24.70;91.10;;;;;;4939303;29;20453;-84
2023/06/19 00:35:14;;;;;;;2.50;2.30;;;24.70;91.10;;;;;;4939089;29;21001;-84
2023/06/19 00:37:44;;;;;;;3.00;2.80;;;24.70;91.20;;;;;;4939096;29;20457;-84
2023/06/19 00:40:22;;;;;;;2.80;2.60;;;24.70;91.20;;;;;;4939302;29;21006;-84
2023/06/19 00:42:49;;;;;;;2.60;2.40;;;24.70;91.00;;;;;;4939151;29;20446;-84
2023/06/19 00:45:17;;;;;;;3.17;2.97;;;24.70;91.20;;;;;;4939147;29;20861;-84
2023/06/19 00:47:44;;;;;;;3.13;2.93;;;24.70;91.10;;;;;;4938888;29;20454;-84
2023/06/19 00:50:12;;;;;;;2.83;2.63;;;24.70;91.10;;;;;;4939150;29;20457;-84
2023/06/19 00:52:39;;;;;;;2.63;2.43;;;24.70;91.20;;;;;;4938927;29;20531;-84
2023/06/19 00:55:09;;;;;;;2.90;2.70;;;24.70;91.40;;;;;;4938746;29;20533;-84
2023/06/19 00:57:36;;;;;;;2.47;2.27;;;24.70;91.20;;;;;;4938839;29;20488;-84
2023/06/19 01:00:06;;;;;;;2.53;2.33;;;24.70;91.40;;;;;;4938624;29;20469;-84
2023/06/19 01:02:36;;;;;;;2.33;2.13;;;24.70;91.10;;;;;;4939107;29;20448;-84
2023/06/19 01:05:03;;;;;;;2.30;2.10;;;24.70;91.00;;;;;;4938775;29;20790;-84
2023/06/19 01:07:40;;;;;;;2.70;2.50;;;24.70;91.10;;;;;;4938598;29;20533;-84
2023/06/19 01:10:10;;;;;;;2.93;2.73;;;24.70;90.70;;;;;;4938782;29;20541;-84
2023/06/19 01:12:44;;;;;;;2.90;2.70;;;24.70;91.20;;;;;;4938528;29;20798;-84
2023/06/19 01:15:12;;;;;;;2.63;2.43;;;24.70;91.10;;;;;;4938551;29;20535;-85
2023/06/19 01:17:41;;;;;;;2.93;2.73;;;24.70;91.00;;;;;;4938571;29;20522;-84
2023/06/19 01:20:10;;;;;;;2.40;2.20;;;24.70;91.10;;;;;;4938554;29;20469;-84
2023/06/19 01:22:39;;;;;;;2.63;2.43;;;24.70;91.20;;;;;;4938596;29;20445;-85
2023/06/19 01:25:07;;;;;;;2.50;2.40;;;24.70;91.10;;;;;;4938377;29;20492;-84
2023/06/19 01:27:34;;;;;;;2.73;2.53;;;24.70;91.10;;;;;;4937984;29;20938;-84
2023/06/19 01:30:03;;;;;;;2.83;2.63;;;24.70;91.20;;;;;;4937924;29;20501;-84
2023/06/19 01:32:35;;;;;;;2.90;2.70;;;24.70;91.10;;;;;;4938145;29;20533;-84
2023/06/19 01:35:03;;;;;;;2.53;2.33;;;24.70;91.40;;;;;;4938151;29;21009;-84
2023/06/19 01:37:33;;;;;;;2.60;2.40;;;24.70;91.10;;;;;;4938033;29;20443;-85
2023/06/19 01:40:05;;;;;;;2.33;2.13;;;24.70;91.10;;;;;;4938217;29;20859;-84
2023/06/19 01:42:33;;;;;;;3.07;2.87;;;24.70;91.10;;;;;;4938089;29;20448;-84
2023/06/19 01:45:02;;;;;;;2.30;2.13;;;24.70;91.10;;;;;;4938105;29;20446;-84
2023/06/19 01:47:29;;;;;;;2.90;2.70;;;24.70;91.20;;;;;;4937970;29;20949;-84
2023/06/19 01:49:56;;;;;;;2.97;2.77;;;24.70;91.20;;;;;;4937917;29;20441;-84
2023/06/19 01:52:24;;;;;;;3.00;2.80;;;24.70;91.10;;;;;;4937888;29;20536;-84
2023/06/19 01:54:51;;;;;;;2.97;2.70;;;24.70;91.20;;;;;;4937826;29;20511;-84
2023/06/19 01:57:19;;;;;;;2.60;2.40;;;24.70;91.20;;;;;;4937783;29;20460;-84
2023/06/19 01:59:46;;;;;;;3.10;2.90;;;24.70;91.10;;;;;;4937767;29;20473;-84
2023/06/19 02:02:13;;;;;;;2.10;2.00;;;24.70;91.20;;;;;;4937712;29;20464;-84
2023/06/19 02:04:40;;;;;;;2.50;2.30;;;24.70;91.20;;;;;;4937713;29;20477;-84
2023/06/19 02:07:07;;;;;;;2.43;2.23;;;24.70;91.10;;;;;;4937615;29;20443;-84
2023/06/19 02:09:34;;;;;;;2.07;1.97;;;24.70;91.10;;;;;;4937607;29;20471;-84
2023/06/19 02:12:01;;;;;;;2.87;2.67;;;24.70;91.30;;;;;;4937512;29;20538;-84
2023/06/19 02:14:29;;;;;;;2.43;2.23;;;24.70;91.40;;;;;;4937424;29;20576;-84
2023/06/19 02:16:56;;;;;;;2.57;2.37;;;24.70;91.50;;;;;;4937513;29;20449;-84
2023/06/19 02:19:23;;;;;;;2.70;2.50;;;24.70;91.30;;;;;;4937354;29;21010;-84
2023/06/19 02:21:50;;;;;;;2.63;2.43;;;24.70;91.00;;;;;;4937403;29;20519;-84
2023/06/19 02:24:16;;;;;;;2.80;2.60;;;24.70;91.20;;;;;;4937302;29;20478;-84
2023/06/19 02:26:44;;;;;;;2.70;2.50;;;24.70;91.20;;;;;;4937340;29;20493;-85
2023/06/19 02:29:11;;;;;;;2.83;2.63;;;24.70;91.20;;;;;;4937177;29;20806;-84
2023/06/19 02:31:39;;;;;;;2.90;2.70;;;24.70;91.20;;;;;;4936757;29;20567;-84
2023/06/19 02:34:07;;;;;;;2.77;2.57;;;24.70;91.30;;;;;;4937061;29;20947;-84
2023/06/19 02:36:35;;;;;;;2.60;2.40;;;24.70;91.20;;;;;;4937015;29;20490;-84
2023/06/19 02:39:02;;;;;;;2.77;2.57;;;24.70;91.30;;;;;;4936408;29;20485;-85
2023/06/19 02:41:29;;;;;;;2.70;2.50;;;24.70;91.20;;;;;;4937083;29;20453;-84
2023/06/19 02:43:55;;;;;;;2.20;2.10;;;24.70;91.20;;;;;;4936948;29;20445;-84
2023/06/19 02:46:22;;;;;;;2.30;2.13;;;24.70;91.30;;;;;;4936951;29;20525;-84
2023/06/19 02:48:50;;;;;;;2.30;2.10;;;24.70;91.40;;;;;;4936675;29;20482;-84
2023/06/19 02:51:17;;;;;;;3.10;2.90;;;24.70;91.30;;;;;;4936700;29;20452;-84
2023/06/19 02:53:44;;;;;;;3.07;2.87;;;24.70;91.40;;;;;;4936605;29;20520;-84
2023/06/19 02:56:13;;;;;;;2.50;2.30;;;24.70;91.40;;;;;;4936632;29;20499;-84
2023/06/19 02:58:39;;;;;;;2.50;2.40;;;24.70;91.40;;;;;;4936599;29;20548;-84
2023/06/19 03:01:08;;;;;;;2.87;2.67;;;24.70;91.40;;;;;;4936587;29;20595;-84
2023/06/19 03:03:37;;;;;;;2.80;2.60;;;24.70;91.40;;;;;;4936695;29;20452;-84
2023/06/19 03:06:05;;;;;;;2.20;2.10;;;24.70;91.20;;;;;;4936631;29;20453;-84
2023/06/19 03:08:33;;;;;;;2.53;2.33;;;24.70;91.30;;;;;;4936472;29;21014;-84
2023/06/19 03:11:00;;;;;;;2.33;2.17;;;24.70;91.30;;;;;;4936511;29;20805;-84
2023/06/19 03:13:27;;;;;;;3.07;2.70;;;24.70;91.40;;;;;;4936269;29;20530;-84
2023/06/19 03:15:53;;;;;;;3.40;3.10;;;24.70;91.20;;;;;;4936407;29;20496;-84
2023/06/19 03:18:20;;;;;;;2.20;2.10;;;24.70;91.60;;;;;;4936360;29;20536;-84
2023/06/19 03:20:47;;;;;;;2.50;2.30;;;24.70;91.70;;;;;;4936448;29;20555;-84
2023/06/19 03:23:16;;;;;;;2.40;2.30;;;24.70;91.20;;;;;;4936290;29;20449;-84
2023/06/19 03:25:43;;;;;;;2.27;2.17;;;24.70;91.30;;;;;;4936398;29;20463;-84
2023/06/19 03:28:09;;;;;;;2.17;2.07;;;24.70;91.30;;;;;;4936094;29;20449;-84
2023/06/19 03:30:36;;;;;;;2.70;2.50;;;24.70;91.30;;;;;;4935923;29;20579;-84
2023/06/19 03:33:03;;;;;;;2.60;2.40;;;24.70;91.20;;;;;;4936093;29;20449;-84
2023/06/19 03:35:30;;;;;;;2.40;2.20;;;24.70;91.60;;;;;;4936053;29;20486;-84
2023/06/19 03:37:57;;;;;;;2.73;2.53;;;24.70;91.40;;;;;;4936142;29;20547;-84
2023/06/19 03:40:25;;;;;;;2.67;2.47;;;24.70;91.30;;;;;;4935998;29;20452;-84
2023/06/19 03:42:52;;;;;;;2.20;2.10;;;24.70;91.30;;;;;;4935992;29;20463;-84
2023/06/19 03:45:18;;;;;;;2.83;2.63;;;24.70;91.40;;;;;;4936012;29;20460;-84
2023/06/19 03:47:45;;;;;;;2.77;2.57;;;24.70;91.40;;;;;;4935946;29;20536;-84
2023/06/19 03:50:12;;;;;;;2.40;2.20;;;24.70;91.20;;;;;;4935782;29;20445;-84
2023/06/19 03:52:39;;;;;;;2.87;2.67;;;24.70;91.40;;;;;;4935879;29;20447;-84
2023/06/19 03:55:07;;;;;;;2.93;2.73;;;24.70;91.30;;;;;;4935727;29;20488;-84
2023/06/19 03:57:35;;;;;;;2.50;2.30;;;24.70;91.20;;;;;;4935881;29;21092;-84
2023/06/19 04:00:03;;;;;;;2.70;2.50;;;24.70;91.30;;;;;;4935804;29;20474;-84
2023/06/19 04:02:30;;;;;;;2.40;2.20;;;24.70;91.30;;;;;;4935913;29;20849;-84
2023/06/19 04:04:56;;;;;;;2.30;2.10;;;24.70;91.40;;;;;;4935733;29;20540;-84
2023/06/19 04:07:23;;;;;;;2.80;2.60;;;24.70;91.50;;;;;;4935720;29;20540;-84
2023/06/19 04:09:50;;;;;;;2.53;2.33;;;24.70;91.40;;;;;;4935782;29;20451;-84
2023/06/19 04:12:17;;;;;;;2.60;2.43;;;24.70;91.40;;;;;;4935719;29;20448;-84
2023/06/19 04:14:45;;;;;;;2.60;2.40;;;24.70;91.40;;;;;;4935683;29;20828;-83
2023/06/19 04:17:12;;;;;;;2.43;2.30;;;24.70;91.40;;;;;;4935451;29;20494;-84
2023/06/19 04:19:39;;;;;;;2.23;2.13;;;24.70;91.40;;;;;;4935764;29;20444;-84
2023/06/19 04:22:06;;;;;;;2.20;2.10;;;24.70;91.40;;;;;;4935582;29;20535;-84
2023/06/19 04:24:33;;;;;;;2.23;2.13;;;24.70;91.40;;;;;;4935799;29;20953;-84
2023/06/19 04:27:00;;;;;;;2.60;2.40;;;24.70;91.40;;;;;;4918739;29;20459;-84
2023/06/19 04:29:31;;;;;;;2.60;2.40;;;24.70;91.40;;;;;;4935312;29;20460;-84
2023/06/19 04:31:59;;;;;;;2.30;2.20;;;24.70;91.40;;;;;;4935384;29;21018;-84
2023/06/19 04:34:26;;;;;;;2.30;2.20;;;24.70;91.30;;;;;;4935547;29;20452;-84
2023/06/19 04:36:53;;;;;;;2.40;2.30;;;24.70;91.50;;;;;;4935462;29;20492;-84
2023/06/19 04:39:20;;;;;;;2.80;2.60;;;24.70;91.30;;;;;;4935520;29;20538;-84
2023/06/19 04:41:47;;;;;;;2.67;2.47;;;24.70;91.30;;;;;;4935521;29;20445;-84
2023/06/19 04:44:14;;;;;;;2.57;2.40;;;24.70;91.40;;;;;;4935409;29;21008;-84
2023/06/19 04:46:41;;;;;;;2.33;2.20;;;24.70;91.40;;;;;;4935405;29;20462;-84
2023/06/19 04:49:10;;;;;;;2.27;2.07;;;24.70;91.20;;;;;;4935361;29;20451;-84
2023/06/19 04:51:36;;;;;;;2.70;2.50;;;24.70;91.40;;;;;;4935282;29;20788;-84
2023/06/19 04:54:04;;;;;;;2.57;2.37;;;24.70;91.50;;;;;;4935483;29;20546;-84
2023/06/19 04:56:30;;;;;;;2.67;2.47;;;24.70;91.40;;;;;;4935345;29;20518;-84
2023/06/19 04:58:59;;;;;;;2.70;2.50;;;24.70;91.50;;;;;;4935233;29;20535;-84
2023/06/19 05:01:28;;;;;;;2.53;2.33;;;24.70;91.30;;;;;;4935848;29;20475;-84
2023/06/19 05:03:56;;;;;;;2.47;2.30;;;24.70;91.50;;;;;;4938644;29;20449;-84
2023/06/19 05:06:25;;;;;;;2.83;2.63;;;24.70;91.40;;;;;;4938711;29;20456;-88
2023/06/19 05:08:53;;;;;;;2.40;2.30;;;24.70;91.40;;;;;;4943315;29;20531;-89
2023/06/19 05:11:20;;;;;;;2.00;1.90;;;24.70;91.50;;;;;;4941779;29;20444;-96
2023/06/19 05:13:47;;;;;;;2.50;2.30;;;24.70;91.40;;;;;;4942364;29;20483;-92
2023/06/19 05:16:16;;;;;;;2.00;1.80;;;24.70;91.20;;;;;;4942593;29;20516;-96
2023/06/19 05:18:43;;;;;;;3.10;2.30;;;24.70;91.20;;;;;;4941399;29;20487;-88
2023/06/19 05:21:10;;;;;;;2.33;2.23;;;24.70;91.20;;;;;;4940974;29;20450;-95
2023/06/19 05:23:39;;;;;;;2.20;2.10;;;24.70;91.10;;;;;;4942763;29;20473;-90
2023/06/19 05:26:06;;;;;;;2.60;2.40;;;24.70;91.20;;;;;;4942104;29;20471;-90
2023/06/19 05:28:33;;;;;;;2.17;2.00;;;24.70;91.20;;;;;;4942902;29;20442;-95
2023/06/19 05:31:00;;;;;;;2.40;2.20;;;24.70;91.10;;;;;;4941420;29;20480;-89
2023/06/19 05:33:27;;;;;;;2.17;2.07;;;24.70;91.10;;;;;;4945745;29;20540;-90
2023/06/19 05:35:54;;;;;;;2.10;2.00;;;24.70;91.10;;;;;;4944664;29;20492;-96
2023/06/19 05:38:21;;;;;;;2.40;2.23;;;24.70;91.10;;;;;;4940857;29;20455;-89
2023/06/19 05:40:49;;;;;;;2.50;2.30;;;24.70;91.30;;;;;;4942514;29;20455;-94
2023/06/19 05:43:16;;;;;;;2.10;2.00;;;24.70;91.20;;;;;;4940671;29;20539;-89
2023/06/19 05:45:43;;;;;;;2.27;2.17;;;24.70;91.30;;;;;;4940420;29;20440;-95
2023/06/19 05:48:09;;;;;;;2.30;2.20;;;24.70;91.20;;;;;;4940912;29;20451;-95
2023/06/19 05:50:36;;;;;;;2.63;2.43;;;24.80;91.60;;;;;;4941664;29;20491;-95
2023/06/19 05:53:03;;;;;;;2.23;2.07;;;24.80;91.30;;;;;;4941897;29;20540;-96
2023/06/19 05:55:30;;;;;;;2.17;2.07;;;24.80;91.30;;;;;;4941936;29;20452;-93
2023/06/19 05:57:58;;;;;;;2.43;2.20;;;24.70;91.40;;;;;;4939962;29;20477;-89
2023/06/19 06:00:25;;;;;;;2.00;1.83;;;24.80;91.20;;;;;;4940283;29;20473;-89
2023/06/19 06:02:52;;;;;;;2.40;2.23;;;24.80;91.10;;;;;;4942447;29;20445;-96
2023/06/19 06:05:20;;;;;;;2.00;1.90;;;24.70;91.20;;;;;;4942276;29;20489;-96
2023/06/19 06:07:47;;;;;;;2.40;2.20;;;24.80;91.30;;;;;;4924899;29;20443;-92
2023/06/19 06:10:16;;;;;;;2.13;2.00;;;24.80;91.20;;;;;;4940283;29;20526;-89
2023/06/19 06:12:43;;;;;;;2.13;2.00;;;24.80;91.30;;;;;;4940964;29;20446;-89
2023/06/19 06:15:12;;;;;;;2.47;2.27;;;24.80;91.30;;;;;;4939600;29;20544;-89
2023/06/19 06:17:38;;;;;;;2.13;2.03;;;24.80;91.30;;;;;;4942239;29;20496;-96
2023/06/19 06:20:11;;;;;;;2.10;1.97;;;24.80;91.30;;;;;;4940625;29;20544;-95
2023/06/19 06:22:38;;;;;;;2.10;2.00;;;24.80;91.20;;;;;;4940187;29;20449;-95
2023/06/19 06:25:05;;;;;;;2.40;2.30;;;24.80;91.40;;;;;;4940694;29;20452;-90
2023/06/19 06:27:32;;;;;;;2.23;2.10;;;24.80;91.40;;;;;;4941749;29;20441;-93
2023/06/19 06:29:59;;;;;;;2.07;1.90;;;24.70;91.40;;;;;;4940102;29;20561;-89
2023/06/19 06:32:28;;;;;;;2.23;2.03;;;24.80;91.40;;;;;;4941971;29;20442;-89
2023/06/19 06:34:55;;;;;;;2.07;1.97;;;24.80;91.40;;;;;;4942100;29;20457;-96
2023/06/19 06:37:23;;;;;;;2.53;2.33;;;24.80;91.10;;;;;;4940332;29;20565;-95
2023/06/19 06:39:50;;;;;;;2.10;2.00;;;24.80;91.20;;;;;;4940871;29;20456;-90
2023/06/19 06:42:17;;;;;;;2.13;2.03;;;24.80;91.20;;;;;;4943743;29;20453;-88
2023/06/19 06:44:44;;;;;;;2.10;2.00;;;24.80;91.40;;;;;;4942728;29;20453;-89
2023/06/19 06:47:10;;;;;;;2.07;1.87;;;24.80;91.30;;;;;;4939362;29;20548;-89
2023/06/19 06:49:39;;;;;;;1.90;1.80;;;24.80;91.40;;;;;;4940368;29;20547;-89
2023/06/19 06:52:07;;;;;;;2.63;1.80;;;24.80;91.20;;;;;;4940435;29;20451;-89
2023/06/19 06:54:33;;;;;;;3.00;1.77;;;24.80;91.10;;;;;;4939681;29;20503;-96
2023/06/19 06:57:00;;;;;;;2.20;2.10;;;24.80;91.30;;;;;;4940786;29;20589;-96
2023/06/19 06:59:28;;;;;;;1.93;1.83;;;24.80;91.10;;;;;;4942444;29;20540;-89
2023/06/19 07:01:56;;;;;;;2.40;2.20;;;24.80;91.20;;;;;;4940628;29;20455;-89
2023/06/19 07:04:23;;;;;;;2.40;2.20;;;24.80;91.30;;;;;;4940949;29;20468;-96
2023/06/19 07:06:51;;;;;;;1.67;1.57;;;24.80;91.30;;;;;;4939941;29;20544;-90
2023/06/19 07:09:18;;;;;;;2.27;2.07;;;24.80;91.30;;;;;;4943956;29;20453;-96
2023/06/19 07:11:45;;;;;;;2.00;1.90;;;24.80;91.30;;;;;;4945682;29;20467;-96
2023/06/19 07:14:13;;;;;;;2.00;1.90;;;24.80;91.30;;;;;;4948413;29;20448;-93
2023/06/19 07:16:40;;;;;;;2.10;2.00;;;24.80;91.20;;;;;;4950653;29;20479;-96
2023/06/19 07:19:06;;;;;;;2.63;2.30;;;24.80;91.10;;;;;;4944713;29;20539;-89
2023/06/19 07:21:33;;;;;;;2.00;1.80;;;24.80;91.40;;;;;;4945143;29;20542;-96
2023/06/19 07:24:02;;;;;;;2.10;2.00;;;24.80;91.50;;;;;;4945621;29;20449;-93
2023/06/19 07:26:29;;;;;;;2.00;1.80;;;24.80;91.40;;;;;;4941161;29;20481;-89
2023/06/19 07:28:56;;;;;;;2.17;2.07;;;24.80;91.30;;;;;;4942795;29;20541;-91
2023/06/19 07:31:23;;;;;;;1.90;1.80;;;24.80;91.30;;;;;;4941764;29;20555;-90
2023/06/19 07:33:50;;;;;;;2.00;1.87;;;24.70;91.20;;;;;;4940445;29;20540;-96
2023/06/19 07:36:17;;;;;;;2.03;1.80;;;24.80;91.40;;;;;;4940443;29;20490;-93
2023/06/19 07:38:44;;;;;;;2.13;2.00;;;24.80;91.30;;;;;;4942912;29;20543;-89
2023/06/19 07:41:12;;;;;;;2.20;2.10;;;24.80;91.10;;;;;;4942350;29;20544;-89
2023/06/19 07:43:39;;;;;;;2.10;2.00;;;24.80;91.20;;;;;;4943208;29;20450;-90
2023/06/19 07:46:06;;;;;;;2.10;2.00;;;24.80;91.20;;;;;;4942655;29;20495;-94
2023/06/19 07:48:33;;;;;;;1.90;1.80;;;24.80;91.40;;;;;;4941477;29;20870;-92
2023/06/19 07:51:00;;;;;;;1.80;1.70;;;24.80;91.30;;;;;;4943681;29;20481;-96
2023/06/19 07:53:27;;;;;;;2.00;1.90;;;24.80;91.40;;;;;;4942006;29;20981;-90
2023/06/19 07:55:54;;;;;;;1.97;1.87;;;24.80;91.30;;;;;;4944771;29;20451;-90
2023/06/19 07:58:22;;;;;;;1.80;1.70;;;24.80;91.40;;;;;;4942988;29;20586;-90
2023/06/19 08:00:49;;;;;;;2.20;2.00;;;24.80;91.40;;;;;;4944606;29;20505;-94
2023/06/19 08:03:16;;;;;;;1.90;1.70;;;24.80;91.40;;;;;;4942474;29;20810;-90
2023/06/19 08:05:42;;;;;;;2.17;1.97;;;24.80;91.40;;;;;;4942544;29;20531;-89
2023/06/19 08:08:09;;;;;;;1.80;1.70;;;24.80;91.40;;;;;;4943600;29;20474;-90
2023/06/19 08:10:36;;;;;;;1.90;1.80;;;24.80;91.50;;;;;;4941066;29;20531;-91
2023/06/19 08:13:03;;;;;;;1.87;1.77;;;24.80;91.40;;;;;;4942558;29;20542;-89
2023/06/19 08:15:31;;;;;;;2.37;2.17;;;24.80;91.40;;;;;;4940202;29;20513;-89
2023/06/19 08:17:58;;;;;;;1.80;1.70;;;24.80;91.40;;;;;;4938473;29;20492;-90
2023/06/19 08:20:25;;;;;;;2.03;1.83;;;24.80;91.40;;;;;;4938941;29;20439;-90
2023/06/19 08:22:52;;;;;;;1.53;1.43;;;24.80;91.50;;;;;;4937385;29;20553;-89
2023/06/19 08:25:19;;;;;;;2.10;1.90;;;24.80;91.30;;;;;;4939508;29;20517;-89
2023/06/19 08:27:46;;;;;;;2.10;2.00;;;24.80;91.20;;;;;;4937175;29;20537;-89
2023/06/19 08:30:13;;;;;;;1.77;1.63;;;24.80;91.20;;;;;;4937705;29;20463;-90
2023/06/19 08:32:41;;;;;;;1.43;1.33;;;24.80;91.50;;;;;;4947746;28;20495;-89
2023/06/19 08:35:09;;;;;;;2.07;1.60;;;24.80;91.40;;;;;;4953228;28;20473;-90
2023/06/19 08:37:35;;;;;;;1.70;1.60;;;24.80;91.40;;;;;;4950439;29;20534;-89
2023/06/19 08:40:06;;;;;;;2.10;1.90;;;24.80;91.40;;;;;;4946579;29;20599;-90
2023/06/19 08:42:32;;;;;;;2.00;1.90;;;24.80;91.50;;;;;;4943882;28;20452;-96
2023/06/19 08:44:59;;;;;;;1.87;1.77;;;24.80;91.40;;;;;;4943812;29;20469;-90
2023/06/19 08:47:30;;;;;;;1.87;1.77;;;24.80;91.30;;;;;;4943300;29;20456;-88
2023/06/19 08:49:59;;;;;;;1.70;1.60;;;24.80;91.50;;;;;;4940913;29;20447;-90
2023/06/19 08:52:26;;;;;;;1.70;1.37;;;24.80;91.40;;;;;;4941728;29;20816;-90
2023/06/19 08:54:53;;;;;;;1.80;1.70;;;24.80;91.40;;;;;;4943155;29;20481;-90
2023/06/19 08:57:20;;;;;;;1.60;1.50;;;24.80;91.30;;;;;;4943251;29;20495;-90
2023/06/19 08:59:50;;;;;;;2.00;1.90;;;24.80;91.40;;;;;;4942467;29;20469;-91
2023/06/19 09:02:17;;;;;;;1.73;1.63;;;24.80;91.50;;;;;;4943301;29;20454;-90
2023/06/19 09:04:44;;;;;;;1.60;1.50;;;24.80;91.50;;;;;;4942841;29;20871;-90
2023/06/19 09:07:14;;;;;;;1.73;1.63;;;24.80;91.30;;;;;;4940163;29;20524;-90
2023/06/19 09:09:46;;;;;;;1.73;1.63;;;24.80;91.50;;;;;;4941919;29;20456;-91
2023/06/19 09:12:15;;;;;;;1.70;1.60;;;24.80;91.40;;;;;;4942491;29;20476;-94
2023/06/19 09:14:43;;;;;;;2.00;1.80;;;24.90;91.50;;;;;;4944450;29;20485;-94
2023/06/19 09:17:12;;;;;;;1.57;1.47;;;24.80;91.50;;;;;;4941598;29;20481;-90
2023/06/19 09:19:48;;;;;;;1.60;1.50;;;24.80;91.50;;;;;;4939816;29;20465;-90
2023/06/19 09:22:19;;;;;;;1.83;1.73;;;24.80;91.50;;;;;;4940097;29;20451;-92
2023/06/19 09:24:46;;;;;;;1.53;1.43;;;24.80;91.50;;;;;;4941348;29;20453;-90
2023/06/19 09:27:17;;;;;;;1.60;1.50;;;24.80;91.50;;;;;;4939857;29;20465;-96
2023/06/19 09:29:46;;;;;;;1.93;1.83;;;24.80;91.50;;;;;;4940136;29;20525;-90
2023/06/19 09:32:17;;;;;;;1.73;1.63;;;24.80;91.50;;;;;;4940121;29;20474;-96
2023/06/19 09:34:44;;;;;;;1.63;1.53;;;24.80;91.40;;;;;;4939506;29;20528;-90
2023/06/19 09:37:11;;;;;;;1.87;1.77;;;24.80;91.60;;;;;;4940344;29;20571;-90
2023/06/19 09:39:40;;;;;;;2.33;2.13;;;24.80;91.40;;;;;;4939958;29;20452;-90
2023/06/19 09:42:08;;;;;;;1.70;1.60;;;24.80;91.60;;;;;;4940226;29;20446;-91
2023/06/19 09:44:42;;;;;;;1.60;1.50;;;24.80;91.50;;;;;;4938935;29;20802;-90
2023/06/19 09:47:18;;;;;;;1.60;1.50;;;24.80;91.60;;;;;;4938738;29;20486;-90
2023/06/19 09:49:50;;;;;;;1.57;1.47;;;24.80;91.50;;;;;;4938332;29;20545;-90
2023/06/19 09:52:19;;;;;;;1.50;1.40;;;24.90;91.60;;;;;;4938541;29;20444;-90
2023/06/19 09:54:47;;;;;;;1.83;1.73;;;24.80;91.50;;;;;;4938655;29;20453;-90
2023/06/19 09:57:14;;;;;;;1.70;1.60;;;24.80;91.60;;;;;;4938372;29;20569;-90
2023/06/19 09:59:42;;;;;;;1.53;1.43;;;24.80;91.60;;;;;;4938017;29;20469;-91
2023/06/19 10:02:10;;;;;;;1.70;1.60;;;24.90;91.70;;;;;;4938661;29;20465;-96
2023/06/19 10:04:45;;;;;;;1.50;1.40;;;24.90;91.70;;;;;;4939119;29;20870;-91
2023/06/19 10:07:17;;;;;;;1.63;1.53;;;24.90;91.70;;;;;;4939162;29;20438;-90
2023/06/19 10:10:00;;;;;;;1.80;1.70;;;24.90;91.70;;;;;;4938414;29;20894;-91
2023/06/19 10:12:38;;;;;;;1.60;1.50;;;24.90;91.60;;;;;;4939565;29;20988;-96
2023/06/19 10:15:17;;;;;;;1.77;1.67;;;24.90;91.60;;;;;;4938951;29;20526;-95
2023/06/19 10:17:46;;;;;;;1.60;1.50;;;24.90;91.70;;;;;;4939960;29;20544;-90
2023/06/19 10:20:24;;;;;;;1.80;1.63;;;24.90;91.50;;;;;;4938373;29;20534;-96
2023/06/19 10:22:59;;;;;;;1.57;1.47;;;24.90;91.70;;;;;;4938497;29;20446;-90
2023/06/19 10:25:29;;;;;;;1.77;1.67;;;24.90;91.70;;;;;;4938344;29;20467;-90
2023/06/19 10:27:56;;;;;;;1.77;1.67;;;24.90;91.60;;;;;;4938376;29;20539;-90
2023/06/19 10:30:23;;;;;;;1.80;1.70;;;24.90;91.70;;;;;;4937373;29;20532;-90
2023/06/19 10:32:51;;;;;;;1.40;1.30;;;24.90;91.60;;;;;;4938287;29;20454;-90
2023/06/19 10:35:21;;;;;;;1.50;1.40;;;24.90;91.80;;;;;;4938287;29;20528;-90
2023/06/19 10:37:48;;;;;;;1.70;1.60;;;24.90;92.00;;;;;;4937925;29;20545;-91
2023/06/19 10:40:15;;;;;;;1.43;1.33;;;24.90;91.90;;;;;;4937775;29;20807;-90
2023/06/19 10:42:44;;;;;;;1.60;1.50;;;24.90;91.70;;;;;;4937306;29;20545;-90
2023/06/19 10:45:13;;;;;;;1.50;1.40;;;24.90;91.70;;;;;;4937802;29;20470;-96
2023/06/19 10:47:41;;;;;;;1.60;1.50;;;24.90;91.80;;;;;;4937120;29;20541;-90
2023/06/19 10:50:12;;;;;;;1.73;1.63;;;24.90;91.70;;;;;;4937390;29;20456;-90
2023/06/19 10:52:42;;;;;;;1.77;1.67;;;24.90;91.90;;;;;;4937549;29;20524;-90
2023/06/19 10:55:10;;;;;;;2.23;2.03;;;24.90;91.80;;;;;;4937692;29;20486;-90
2023/06/19 10:57:38;;;;;;;1.70;1.60;;;24.90;91.90;;;;;;4938663;29;20474;-90
2023/06/19 11:00:12;;;;;;;2.00;1.77;;;24.90;91.90;;;;;;4936797;29;21048;-90
2023/06/19 11:02:42;;;;;;;1.47;1.37;;;24.90;92.00;;;;;;4937680;29;20510;-91
2023/06/19 11:05:10;;;;;;;1.50;1.40;;;24.90;92.00;;;;;;4937305;29;20434;-96
2023/06/19 11:07:37;;;;;;;1.73;1.63;;;24.90;91.90;;;;;;4937222;29;20562;-90
2023/06/19 11:10:05;;;;;;;2.00;1.90;;;24.90;92.00;;;;;;4936880;29;20459;-90
2023/06/19 11:12:33;;;;;;;1.30;1.10;;;24.90;92.00;;;;;;4935937;29;20445;-90
2023/06/19 11:15:03;;;;;;;2.07;1.97;;;24.90;92.00;;;;;;4936508;29;20442;-90
2023/06/19 11:17:32;;;;;;;1.50;1.40;;;24.90;91.90;;;;;;4937521;29;20955;-90
2023/06/19 11:19:59;;;;;;;1.77;1.67;;;24.90;91.80;;;;;;4937131;29;20462;-96
2023/06/19 11:22:37;;;;;;;1.50;1.40;;;25.00;92.00;;;;;;4936949;29;20805;-91
2023/06/19 11:25:05;;;;;;;1.83;1.73;;;24.90;92.00;;;;;;4936751;29;20446;-90
2023/06/19 11:27:32;;;;;;;1.63;1.53;;;24.90;91.90;;;;;;4937305;29;20493;-96
2023/06/19 11:30:00;;;;;;;1.83;1.73;;;24.90;92.00;;;;;;4936332;29;20466;-91
2023/06/19 11:32:35;;;;;;;2.20;1.57;;;24.90;92.00;;;;;;4936577;29;20556;-90
2023/06/19 11:35:08;;;;;;;1.43;1.33;;;24.90;91.90;;;;;;4936914;29;20462;-90
2023/06/19 11:37:35;;;;;;;1.80;1.70;;;25.00;92.00;;;;;;4936878;29;20490;-96
2023/06/19 11:40:04;;;;;;;1.50;1.40;;;24.90;91.80;;;;;;4936578;29;20453;-90
2023/06/19 11:42:32;;;;;;;1.80;1.70;;;25.00;92.30;;;;;;4937641;29;20541;-91
2023/06/19 11:45:06;;;;;;;1.70;1.60;;;25.00;92.20;;;;;;4936351;29;20453;-90
2023/06/19 11:47:35;;;;;;;2.17;1.97;;;25.00;91.90;;;;;;4936405;29;20452;-90
2023/06/19 11:50:05;;;;;;;2.23;1.67;;;25.00;91.90;;;;;;4936490;29;20536;-96
2023/06/19 11:52:32;;;;;;;1.57;1.47;;;25.00;92.00;;;;;;4936337;29;21033;-95
2023/06/19 11:54:59;;;;;;;1.80;1.70;;;25.00;92.00;;;;;;4936059;29;20543;-90
2023/06/19 11:57:28;;;;;;;1.60;1.50;;;25.00;92.00;;;;;;4936069;29;20975;-90
2023/06/19 11:59:55;;;;;;;1.70;1.60;;;25.00;92.00;;;;;;4936010;29;20479;-90
2023/06/19 12:02:22;;;;;;;1.90;1.80;;;25.00;92.30;;;;;;4936273;29;20449;-96
2023/06/19 12:04:50;;;;;;;1.90;1.77;;;24.90;92.20;;;;;;4936063;29;20446;-90
2023/06/19 12:07:17;;;;;;;1.77;1.67;;;25.00;92.00;;;;;;4936253;29;20459;-91
2023/06/19 12:09:44;;;;;;;1.80;1.70;;;25.00;91.90;;;;;;4936380;29;20802;-91
2023/06/19 12:12:11;;;;;;;2.90;1.60;;;25.00;91.90;;;;;;4937954;29;20782;-91
2023/06/19 12:14:39;;;;;;;1.50;1.40;;;25.00;92.10;;;;;;4939922;29;20449;-90
2023/06/19 12:17:06;;;;;;;1.70;1.60;;;25.00;91.80;;;;;;4939925;29;20446;-90
2023/06/19 12:19:33;;;;;;;1.77;1.67;;;25.00;91.90;;;;;;4939718;29;20496;-90
2023/06/19 12:22:01;;;;;;;1.73;1.40;;;25.00;92.00;;;;;;4939819;29;20454;-90
2023/06/19 12:24:28;;;;;;;2.23;2.03;;;25.00;91.90;;;;;;4939976;29;20438;-90
2023/06/19 12:26:55;;;;;;;1.80;1.70;;;25.00;91.90;;;;;;4939777;29;20542;-90
2023/06/19 12:29:21;;;;;;;1.77;1.67;;;25.00;91.90;;;;;;4939619;29;20471;-90
2023/06/19 12:31:48;;;;;;;2.57;1.70;;;25.00;91.90;;;;;;4939480;29;20488;-90
2023/06/19 12:34:17;;;;;;;2.30;1.80;;;25.00;91.90;;;;;;4939892;29;20520;-91
2023/06/19 12:36:44;;;;;;;2.10;2.00;;;25.00;91.90;;;;;;4939783;29;20442;-91
2023/06/19 12:39:16;;;;;;;1.90;1.80;;;25.00;91.90;;;;;;4939780;29;20845;-89
2023/06/19 12:41:43;;;;;;;1.73;1.63;;;25.00;92.00;;;;;;4939720;29;20558;-90
2023/06/19 12:44:10;;;;;;;1.60;1.50;;;25.00;91.90;;;;;;4939895;29;21007;-90
2023/06/19 12:46:37;;;;;;;1.70;1.60;;;25.00;91.90;;;;;;4939795;29;20436;-90
2023/06/19 12:49:04;;;;;;;1.67;1.57;;;25.00;92.40;;;;;;4939517;29;20446;-91
2023/06/19 12:51:30;;;;;;;2.20;2.00;;;25.00;92.20;;;;;;4939443;29;20537;-91